createdAt,value
2019-01-05T00:02:38.296Z,2.10
2019-01-05T00:05:18.358Z,2.10
2019-01-05T00:08:03.123Z,2.10
2019-01-05T00:10:36.875Z,2.10
2019-01-05T00:13:13.787Z,2.10
2019-01-05T00:15:47.915Z,2.10
2019-01-05T00:18:32.654Z,2.10
2019-01-05T00:21:19.720Z,2.00
2019-01-05T00:23:50.844Z,2.00
2019-01-05T00:26:35.529Z,2.00
2019-01-05T00:29:06.399Z,2.10
2019-01-05T00:31:46.823Z,2.00
2019-01-05T00:34:29.914Z,2.00
2019-01-05T00:37:11.070Z,1.90
2019-01-05T00:39:45.657Z,2.00
2019-01-05T00:42:26.294Z,2.00
2019-01-05T00:45:11.226Z,1.90
2019-01-05T00:47:41.821Z,2.00
2019-01-05T00:50:13.198Z,2.10
2019-01-05T00:52:59.812Z,2.10
2019-01-05T00:55:28.624Z,2.10
2019-01-05T00:57:57.658Z,2.20
2019-01-05T01:00:37.738Z,2.20
2019-01-05T01:03:18.018Z,2.20
2019-01-05T01:05:52.108Z,2.30
2019-01-05T01:08:20.352Z,2.20
2019-01-05T01:10:57.616Z,2.10
2019-01-05T01:13:37.494Z,2.10
2019-01-05T01:16:22.923Z,2.10
2019-01-05T01:19:07.750Z,2.20
2019-01-05T01:21:42.052Z,2.20
2019-01-05T01:24:10.264Z,2.20
2019-01-05T01:26:56.929Z,2.20
2019-01-05T01:29:25.235Z,2.20
2019-01-05T01:31:53.438Z,2.10
2019-01-05T01:34:27.496Z,2.10
2019-01-05T01:36:56.003Z,2.00
2019-01-05T01:39:24.221Z,2.20
2019-01-05T01:42:01.235Z,2.20
2019-01-05T01:44:32.215Z,2.20
2019-01-05T01:47:17.696Z,2.10
2019-01-05T01:49:48.912Z,2.10
2019-01-05T01:52:36.107Z,2.10
2019-01-05T01:55:20.905Z,2.10
2019-01-05T01:57:59.471Z,2.10
2019-01-05T02:00:46.236Z,2.10
2019-01-05T02:03:14.933Z,2.00
2019-01-05T02:05:46.330Z,2.00
2019-01-05T02:08:34.736Z,2.10
2019-01-05T02:11:11.094Z,2.10
2019-01-05T02:13:58.971Z,2.10
2019-01-05T02:16:32.414Z,2.20
2019-01-05T02:19:20.849Z,2.20
2019-01-05T02:21:55.755Z,2.20
2019-01-05T02:24:50.798Z,2.20
2019-01-05T02:27:45.216Z,2.20
2019-01-05T02:30:35.355Z,2.20
2019-01-05T02:33:22.258Z,2.10
2019-01-05T02:36:18.319Z,2.10
2019-01-05T02:39:11.854Z,2.10
2019-01-05T02:42:04.425Z,2.10
2019-01-05T02:44:44.972Z,2.10
2019-01-05T02:47:36.417Z,2.10
2019-01-05T02:50:35.498Z,2.10
2019-01-05T02:53:51.612Z,2.10
2019-01-05T02:56:55.098Z,2.10
2019-01-05T02:59:42.589Z,2.10
2019-01-05T03:02:42.802Z,2.10
2019-01-05T03:05:52.955Z,2.10
2019-01-05T03:09:05.932Z,2.00
2019-01-05T03:12:27.923Z,2.10
2019-01-05T03:15:08.395Z,2.00
2019-01-05T03:18:32.242Z,1.90
2019-01-05T03:21:16.395Z,1.90
2019-01-05T03:24:15.539Z,1.90
2019-01-05T03:27:18.830Z,2.00
2019-01-05T03:30:05.263Z,2.00
2019-01-05T03:33:08.665Z,2.10
2019-01-05T03:36:15.748Z,2.10
2019-01-05T03:39:10.463Z,2.10
2019-01-05T03:42:01.904Z,2.10
2019-01-05T03:45:24.192Z,2.00
2019-01-05T03:48:11.071Z,1.90
2019-01-05T03:51:00.473Z,2.00
2019-01-05T03:53:56.688Z,1.90
2019-01-05T03:56:40.318Z,2.00
2019-01-05T03:59:12.132Z,2.00
2019-01-05T04:02:21.934Z,2.00
2019-01-05T04:05:16.649Z,2.00
2019-01-05T04:08:20.842Z,2.00
2019-01-05T04:11:18.912Z,1.90
2019-01-05T04:14:12.252Z,1.90
2019-01-05T04:17:30.270Z,1.90
2019-01-05T04:20:22.933Z,2.00
2019-01-05T04:23:06.612Z,2.00
2019-01-05T04:25:59.227Z,1.90
2019-01-05T04:28:48.977Z,1.90
2019-01-05T04:31:40.154Z,1.80
2019-01-05T04:34:53.343Z,1.80
2019-01-05T04:37:37.021Z,1.80
2019-01-05T04:40:38.705Z,1.80
2019-01-05T04:43:43.409Z,1.70
2019-01-05T04:46:37.944Z,1.60
2019-01-05T04:49:37.134Z,1.50
2019-01-05T04:52:18.252Z,1.50
2019-01-05T04:55:12.946Z,1.50
2019-01-05T04:58:13.591Z,1.40
2019-01-05T05:01:37.262Z,1.60
2019-01-05T05:04:24.690Z,1.50
2019-01-05T05:07:08.502Z,1.50
2019-01-05T05:10:05.806Z,1.60
2019-01-05T05:13:14.998Z,1.50
2019-01-05T05:16:13.119Z,1.60
2019-01-05T05:19:02.002Z,1.60
2019-01-05T05:21:48.258Z,1.50
2019-01-05T05:25:02.557Z,1.60
2019-01-05T05:27:53.649Z,1.60
2019-01-05T05:30:52.412Z,1.50
2019-01-05T05:33:52.171Z,1.50
2019-01-05T05:36:49.234Z,1.50
2019-01-05T05:39:32.565Z,1.50
2019-01-05T05:42:28.446Z,1.40
2019-01-05T05:45:38.792Z,1.50
2019-01-05T05:48:27.817Z,1.50
2019-01-05T05:51:05.493Z,1.50
2019-01-05T05:54:09.245Z,1.50
2019-01-05T05:57:22.397Z,1.50
2019-01-05T06:00:11.954Z,1.60
2019-01-05T06:02:53.253Z,1.60
2019-01-05T06:05:49.067Z,1.50
2019-01-05T06:08:54.427Z,1.50
2019-01-05T06:11:41.098Z,1.50
2019-01-05T06:14:30.713Z,1.50
2019-01-05T06:17:34.797Z,1.40
2019-01-05T06:20:09.343Z,1.50
2019-01-05T06:22:43.965Z,1.40
2019-01-05T06:25:59.559Z,1.50
2019-01-05T06:28:55.511Z,1.50
2019-01-05T06:32:10.273Z,1.50
2019-01-05T06:34:51.043Z,1.60
2019-01-05T06:37:49.107Z,1.60
2019-01-05T06:40:50.101Z,1.60
2019-01-05T06:43:30.384Z,1.60
2019-01-05T06:46:31.066Z,1.60
2019-01-05T06:49:38.565Z,1.60
2019-01-05T06:52:37.699Z,1.50
2019-01-05T06:55:18.495Z,1.60
2019-01-05T06:58:07.325Z,1.60
2019-01-05T07:00:54.114Z,1.60
2019-01-05T07:03:52.831Z,1.60
2019-01-05T07:06:57.085Z,1.50
2019-01-05T07:10:05.467Z,1.60
2019-01-05T07:12:43.178Z,1.70
2019-01-05T07:15:39.014Z,1.70
2019-01-05T07:18:42.923Z,1.70
2019-01-05T07:21:53.282Z,1.60
2019-01-05T07:25:05.070Z,1.60
2019-01-05T07:28:27.721Z,1.60
2019-01-05T07:31:26.667Z,1.70
2019-01-05T07:34:36.670Z,1.80
2019-01-05T07:37:26.063Z,1.80
2019-01-05T07:40:15.342Z,1.80
2019-01-05T07:43:18.670Z,1.70
2019-01-05T07:46:27.398Z,1.90
2019-01-05T07:49:40.366Z,2.00
2019-01-05T07:52:48.438Z,2.00
2019-01-05T07:55:40.187Z,1.90
2019-01-05T07:58:35.496Z,2.00
2019-01-05T08:01:40.472Z,2.00
2019-01-05T08:04:48.795Z,2.00
2019-01-05T08:07:56.316Z,2.10
2019-01-05T08:10:59.844Z,2.10
2019-01-05T08:13:37.569Z,2.00
2019-01-05T08:16:38.093Z,2.00
2019-01-05T08:19:44.852Z,2.10
2019-01-05T08:22:51.760Z,2.10
2019-01-05T08:25:47.118Z,2.20
2019-01-05T08:28:39.974Z,2.20
2019-01-05T08:31:29.432Z,2.10
2019-01-05T08:34:36.572Z,2.00
2019-01-05T08:37:51.247Z,2.10
2019-01-05T08:41:02.364Z,2.10
2019-01-05T08:44:10.345Z,2.00
2019-01-05T08:47:20.303Z,2.10
2019-01-05T08:50:40.610Z,2.00
2019-01-05T08:53:49.870Z,2.00
2019-01-05T08:57:12.313Z,2.10
2019-01-05T08:59:58.983Z,2.10
2019-01-05T09:02:50.697Z,2.40
2019-01-05T09:05:57.768Z,2.50
2019-01-05T09:09:18.724Z,2.40
2019-01-05T09:12:24.379Z,2.40
2019-01-05T09:15:30.228Z,2.30
2019-01-05T09:18:16.997Z,2.30
2019-01-05T09:21:05.617Z,2.30
2019-01-05T09:24:17.631Z,2.30
2019-01-05T09:27:07.106Z,2.30
2019-01-05T09:29:48.205Z,2.20
2019-01-05T09:32:40.032Z,2.20
2019-01-05T09:35:28.634Z,2.20
2019-01-05T09:38:26.116Z,2.20
2019-01-05T09:41:22.777Z,2.30
2019-01-05T09:44:09.502Z,2.20
2019-01-05T09:46:52.967Z,2.30
2019-01-05T09:49:50.550Z,2.30
2019-01-05T09:52:22.353Z,2.30
2019-01-05T09:55:17.402Z,2.40
2019-01-05T09:58:19.418Z,2.40
2019-01-05T10:01:22.724Z,2.40
2019-01-05T10:04:17.393Z,2.40
2019-01-05T10:07:01.399Z,2.40
2019-01-05T10:10:18.959Z,2.40
2019-01-05T10:13:08.195Z,2.50
2019-01-05T10:16:01.032Z,2.50
2019-01-05T10:18:53.870Z,2.60
2019-01-05T10:22:11.141Z,2.50
2019-01-05T10:25:18.059Z,2.70
2019-01-05T10:28:09.511Z,2.60
2019-01-05T10:31:18.456Z,2.60
2019-01-05T10:34:31.484Z,2.70
2019-01-05T10:37:35.041Z,2.70
2019-01-05T10:41:00.015Z,2.70
2019-01-05T10:43:47.037Z,2.80
2019-01-05T10:46:33.546Z,2.80
2019-01-05T10:49:27.910Z,2.80
2019-01-05T10:52:32.146Z,2.70
2019-01-05T10:55:32.410Z,2.80
2019-01-05T10:58:48.091Z,2.80
2019-01-05T11:01:34.759Z,2.80
2019-01-05T11:04:32.057Z,2.90
2019-01-05T11:07:44.802Z,2.90
2019-01-05T11:10:45.537Z,2.90
2019-01-05T11:13:49.357Z,2.90
2019-01-05T11:16:59.679Z,2.90
2019-01-05T11:20:20.780Z,2.90
2019-01-05T11:23:04.981Z,3.00
2019-01-05T11:26:09.051Z,2.90
2019-01-05T11:28:57.694Z,2.90
2019-01-05T11:31:50.955Z,3.00
2019-01-05T11:34:44.385Z,3.00
2019-01-05T11:37:44.872Z,3.00
2019-01-05T11:40:59.662Z,3.10
2019-01-05T11:43:40.285Z,3.10
2019-01-05T11:46:17.683Z,3.10
2019-01-05T11:49:01.536Z,3.10
2019-01-05T11:52:06.914Z,3.10
2019-01-05T11:55:13.073Z,3.10
2019-01-05T11:58:09.397Z,3.20
2019-01-05T12:01:20.036Z,3.20
2019-01-05T12:04:10.165Z,3.20
2019-01-05T12:07:33.622Z,3.20
2019-01-05T12:10:23.427Z,3.20
2019-01-05T12:13:25.087Z,3.20
2019-01-05T12:16:19.912Z,3.30
2019-01-05T12:19:32.969Z,3.20
2019-01-05T12:22:27.550Z,3.30
2019-01-05T12:25:11.698Z,3.20
2019-01-05T12:28:04.552Z,3.20
2019-01-05T12:31:05.399Z,3.20
2019-01-05T12:33:45.996Z,3.30
2019-01-05T12:37:08.192Z,3.30
2019-01-05T12:40:18.387Z,3.30
2019-01-05T12:43:27.936Z,3.40
2019-01-05T12:46:34.814Z,3.40
2019-01-05T12:49:25.943Z,3.40
2019-01-05T12:52:31.266Z,3.50
2019-01-05T12:55:26.241Z,3.50
2019-01-05T12:58:50.112Z,3.60
2019-01-05T13:01:42.937Z,3.50
2019-01-05T13:05:05.808Z,3.60
2019-01-05T13:07:52.460Z,3.60
2019-01-05T13:11:05.499Z,3.60
2019-01-05T13:14:00.594Z,3.60
2019-01-05T13:17:09.240Z,3.60
2019-01-05T13:20:29.894Z,3.70
2019-01-05T13:23:35.662Z,3.70
2019-01-05T13:26:22.524Z,3.70
2019-01-05T13:29:26.010Z,3.70
2019-01-05T13:32:17.404Z,3.70
2019-01-05T13:35:01.634Z,3.60
2019-01-05T13:38:05.564Z,3.60
2019-01-05T13:41:22.043Z,3.70
2019-01-05T13:44:02.996Z,3.70
2019-01-05T13:47:06.488Z,3.80
2019-01-05T13:49:59.434Z,3.70
2019-01-05T13:52:43.752Z,3.70
2019-01-05T13:55:21.590Z,3.80
2019-01-05T13:57:49.729Z,3.80
2019-01-05T14:00:26.686Z,3.70
2019-01-05T14:03:06.939Z,3.80
2019-01-05T14:05:37.991Z,3.80
2019-01-05T14:08:21.505Z,3.80
2019-01-05T14:10:49.534Z,3.80
2019-01-05T14:13:29.942Z,3.80
2019-01-05T14:16:00.895Z,3.90
2019-01-05T14:18:35.236Z,3.90
2019-01-05T14:21:03.359Z,3.90
2019-01-05T14:23:34.458Z,3.90
2019-01-05T14:26:05.601Z,3.90
2019-01-05T14:28:39.470Z,4.00
2019-01-05T14:31:10.633Z,4.00
2019-01-05T14:33:55.555Z,4.00
2019-01-05T14:36:29.772Z,4.00
2019-01-05T14:39:07.374Z,4.00
2019-01-05T14:41:35.849Z,4.10
2019-01-05T14:44:13.082Z,4.10
2019-01-05T14:46:44.118Z,4.10
2019-01-05T14:49:12.297Z,4.10
2019-01-05T14:51:40.435Z,4.10
2019-01-05T14:54:11.436Z,4.10
2019-01-05T14:56:39.530Z,4.10
2019-01-05T14:59:07.594Z,4.10
2019-01-05T15:01:53.829Z,4.20
2019-01-05T15:04:27.680Z,4.20
2019-01-05T15:06:58.666Z,4.20
2019-01-05T15:09:43.319Z,4.20
2019-01-05T15:12:29.531Z,4.20
2019-01-05T15:15:00.688Z,4.20
2019-01-05T15:17:38.392Z,4.20
2019-01-05T15:20:09.466Z,4.20
2019-01-05T15:22:52.609Z,4.20
2019-01-05T15:25:36.175Z,4.20
2019-01-05T15:28:19.515Z,4.20
2019-01-05T15:31:04.304Z,4.30
2019-01-05T15:33:44.446Z,4.20
2019-01-05T15:36:29.083Z,4.30
2019-01-05T15:39:13.991Z,4.30
2019-01-05T15:41:47.788Z,4.30
2019-01-05T15:44:15.837Z,4.30
2019-01-05T15:47:00.953Z,4.30
2019-01-05T15:49:45.588Z,4.30
2019-01-05T15:52:28.658Z,4.30
2019-01-05T15:54:59.452Z,4.40
2019-01-05T15:57:44.299Z,4.40
2019-01-05T16:00:18.119Z,4.40
2019-01-05T16:02:55.176Z,4.40
2019-01-05T16:05:40.235Z,4.30
2019-01-05T16:08:11.103Z,4.40
2019-01-05T16:10:55.624Z,4.40
2019-01-05T16:13:38.783Z,4.40
2019-01-05T16:16:06.936Z,4.50
2019-01-05T16:18:53.438Z,4.50
2019-01-05T16:21:30.457Z,4.50
2019-01-05T16:24:15.119Z,4.50
2019-01-05T16:27:00.152Z,4.50
2019-01-05T16:29:28.360Z,4.50
2019-01-05T16:32:02.473Z,4.50
2019-01-05T16:34:33.510Z,4.50
2019-01-05T16:37:04.934Z,4.50
2019-01-05T16:39:50.086Z,4.60
2019-01-05T16:42:33.498Z,4.60
2019-01-05T16:45:10.667Z,4.60
2019-01-05T16:47:47.969Z,4.50
2019-01-05T16:50:25.380Z,4.60
2019-01-05T16:52:56.298Z,4.60
2019-01-05T16:55:27.486Z,4.60
2019-01-05T16:57:58.840Z,5.00
2019-01-05T17:00:45.361Z,4.90
2019-01-05T17:03:28.766Z,4.80
2019-01-05T17:06:06.177Z,4.80
2019-01-05T17:08:37.291Z,4.80
2019-01-05T17:11:23.722Z,4.80
2019-01-05T17:13:51.869Z,4.70
2019-01-05T17:16:28.988Z,4.80
2019-01-05T17:19:06.489Z,4.80
2019-01-05T17:21:37.604Z,4.80
2019-01-05T17:24:17.643Z,4.80
2019-01-05T17:26:51.708Z,4.80
2019-01-05T17:29:25.738Z,4.80
2019-01-05T17:31:53.822Z,4.80
2019-01-05T17:34:30.689Z,4.90
2019-01-05T17:37:15.385Z,4.90
2019-01-05T17:39:46.192Z,4.90
2019-01-05T17:42:29.370Z,4.90
2019-01-05T17:45:00.585Z,4.90
2019-01-05T17:47:28.555Z,4.90
2019-01-05T17:50:08.397Z,4.90
2019-01-05T17:52:45.348Z,4.90
2019-01-05T17:55:16.219Z,5.00
2019-01-05T17:58:01.136Z,5.00
2019-01-05T18:00:47.238Z,5.00
2019-01-05T18:03:32.174Z,5.00
2019-01-05T18:06:03.041Z,5.00
2019-01-05T18:08:31.248Z,5.00
2019-01-05T18:11:02.256Z,5.00
2019-01-05T18:13:30.342Z,5.00
2019-01-05T18:15:58.402Z,5.10
2019-01-05T18:18:41.667Z,5.10
2019-01-05T18:21:26.808Z,5.10
2019-01-05T18:24:11.397Z,5.10
2019-01-05T18:26:45.469Z,5.10
2019-01-05T18:29:13.544Z,5.10
2019-01-05T18:31:58.680Z,5.10
2019-01-05T18:34:29.605Z,5.10
2019-01-05T18:37:00.411Z,5.10
2019-01-05T18:39:31.152Z,5.10
2019-01-05T18:42:05.325Z,5.10
2019-01-05T18:44:45.737Z,5.10
2019-01-05T18:47:16.959Z,5.20
2019-01-05T18:49:54.299Z,5.20
2019-01-05T18:52:29.072Z,5.20
2019-01-05T18:55:12.325Z,5.20
2019-01-05T18:57:46.596Z,5.30
2019-01-05T19:00:20.660Z,5.20
2019-01-05T19:03:05.442Z,5.20
2019-01-05T19:05:36.265Z,5.30
2019-01-05T19:08:21.545Z,5.30
2019-01-05T19:11:09.871Z,5.30
2019-01-05T19:13:37.982Z,5.30
2019-01-05T19:16:09.866Z,5.30
2019-01-05T19:18:54.785Z,5.30
2019-01-05T19:21:29.340Z,5.30
2019-01-05T19:24:06.908Z,5.30
2019-01-05T19:26:47.512Z,5.30
2019-01-05T19:29:30.869Z,5.30
2019-01-05T19:32:15.510Z,5.30
2019-01-05T19:35:00.252Z,5.30
2019-01-05T19:37:45.129Z,5.30
2019-01-05T19:40:28.290Z,5.30
2019-01-05T19:43:05.465Z,5.30
2019-01-05T19:45:33.514Z,5.30
2019-01-05T19:48:18.378Z,5.30
2019-01-05T19:50:52.615Z,5.30
2019-01-05T19:53:20.630Z,5.30
2019-01-05T19:55:49.084Z,5.40
2019-01-05T19:58:20.320Z,5.30
2019-01-05T20:00:48.338Z,5.30
2019-01-05T20:03:32.878Z,5.30
2019-01-05T20:06:19.379Z,5.30
2019-01-05T20:08:53.145Z,5.30
2019-01-05T20:11:21.726Z,5.30
2019-01-05T20:14:05.070Z,5.30
2019-01-05T20:16:42.142Z,5.40
2019-01-05T20:19:12.803Z,5.40
2019-01-05T20:21:49.867Z,5.30
2019-01-05T20:24:20.881Z,5.40
2019-01-05T20:27:05.637Z,5.40
2019-01-05T20:29:52.057Z,5.50
2019-01-05T20:32:35.261Z,5.40
2019-01-05T20:35:03.259Z,5.40
2019-01-05T20:37:31.363Z,5.40
2019-01-05T20:40:16.051Z,5.40
2019-01-05T20:42:49.848Z,5.40
2019-01-05T20:45:20.840Z,5.40
2019-01-05T20:47:58.018Z,5.40
2019-01-05T20:50:28.826Z,5.40
2019-01-05T20:53:13.562Z,5.40
2019-01-05T20:55:58.300Z,5.40
2019-01-05T20:58:32.678Z,5.40
2019-01-05T21:01:17.783Z,5.40
2019-01-05T21:03:45.882Z,5.40
2019-01-05T21:06:20.227Z,5.40
2019-01-05T21:09:05.090Z,5.40
2019-01-05T21:11:49.719Z,5.50
2019-01-05T21:14:34.420Z,5.40
2019-01-05T21:17:17.579Z,5.40
2019-01-05T21:19:45.660Z,5.40
2019-01-05T21:22:13.719Z,5.50
2019-01-05T21:24:47.655Z,5.40
2019-01-05T21:27:15.736Z,5.50
2019-01-05T21:29:49.779Z,5.50
2019-01-05T21:32:36.210Z,5.50
2019-01-05T21:35:05.742Z,5.50
2019-01-05T21:37:39.817Z,5.50
2019-01-05T21:40:25.225Z,5.50
2019-01-05T21:42:56.050Z,5.50
2019-01-05T21:45:32.855Z,5.50
2019-01-05T21:48:17.611Z,5.50
2019-01-05T21:50:57.789Z,5.50
2019-01-05T21:53:25.835Z,5.50
2019-01-05T21:56:10.663Z,5.60
2019-01-05T21:58:55.317Z,5.50
2019-01-05T22:01:38.452Z,5.50
2019-01-05T22:04:09.352Z,5.50
2019-01-05T22:06:37.395Z,5.50
2019-01-05T22:09:16.255Z,5.50
2019-01-05T22:11:53.201Z,5.50
2019-01-05T22:14:27.296Z,5.50
2019-01-05T22:16:55.448Z,5.60
2019-01-05T22:19:40.393Z,5.50
2019-01-05T22:22:23.517Z,5.50
2019-01-05T22:25:00.674Z,5.60
2019-01-05T22:27:31.420Z,5.60
2019-01-05T22:30:11.749Z,5.60
2019-01-05T22:32:39.848Z,5.50
2019-01-05T22:35:13.993Z,5.60
2019-01-05T22:37:41.992Z,5.50
2019-01-05T22:40:26.579Z,5.50
2019-01-05T22:42:57.471Z,5.50
2019-01-05T22:45:25.593Z,5.50
2019-01-05T22:47:59.552Z,5.60
2019-01-05T22:50:39.297Z,5.60
2019-01-05T22:53:10.417Z,5.60
2019-01-05T22:55:53.761Z,5.60
2019-01-05T22:58:37.271Z,5.50
2019-01-05T23:01:17.493Z,5.60
2019-01-05T23:03:48.639Z,5.60
2019-01-05T23:06:31.927Z,5.60
2019-01-05T23:09:15.111Z,5.60
2019-01-05T23:11:43.094Z,5.60
2019-01-05T23:14:11.184Z,5.60
2019-01-05T23:16:39.174Z,5.50
2019-01-05T23:19:10.235Z,5.60
2019-01-05T23:21:47.358Z,5.50
2019-01-05T23:24:27.723Z,5.60
2019-01-05T23:27:08.065Z,5.50
2019-01-05T23:29:44.952Z,5.50
2019-01-05T23:32:13.034Z,5.60
2019-01-05T23:34:59.263Z,5.50
2019-01-05T23:37:43.915Z,5.60
2019-01-05T23:40:14.792Z,5.50
2019-01-05T23:42:54.910Z,5.60
2019-01-05T23:45:32.223Z,5.60
2019-01-05T23:48:15.244Z,5.50
2019-01-05T23:50:58.371Z,5.50
2019-01-05T23:53:43.168Z,5.50
2019-01-05T23:56:26.425Z,5.50
2019-01-05T23:59:11.270Z,5.60
